EDDMDBBB

Guest
Details From EDDM - Muenchen Franz-josef Strauss
To DBBB - Cadjehoun
Flight Number -
Tags Generated
Created
Modified
Stats Distance 2,567 nm / 4,755 km
Max Altitude 0 ft / 0 m
Waypoints 6
Social Downloads 0
Likes 0
Share VATSIM

Download

Looking for another format? Having issues loading an existing format? Contact us
Advertisement - Login to hide

Notes

Generated

Route

EDDM LUPOS SME19 TALEL TYE DBBB

ID Type Via Altitude Latitude Longitude Leg Dist Tot Dist Heading (true) Name
O EDDM APT - 0 ft / 0 m 48.34069˚ 11.75108˚ - 0 nm - -
LUPOS FIX - 0 ft / 0 m 44.50472˚ 10.58139˚ 235 nm 235 nm 192° / 191° -
SME19 FIX - 0 ft / 0 m 41.01450˚ 9.61206˚ 213 nm 449 nm 192° / 191° -
TALEL FIX - 0 ft / 0 m 37.05944˚ 8.61139˚ 242 nm 691 nm 191° / 191° -
TYE VOR - 0 ft / 0 m 6.36214˚ 2.39325˚ 1874 nm 2566 nm 192° / 190° COTONOU VOR-DME
O DBBB APT - 0 ft / 0 m 6.35071˚ 2.37568˚ 1 nm 2567 nm 237° / 237° -

Altitude Profile

Advertisement - Login to hide

Weather


0- 5 10 15 20 25 30 35+ Temperature / ° C

Clouds and Precipitation
Forecast for 2018-05-28 00:00 UTC. Updated 9 hours ago

Ground ~20,000 ft ~40,000 ft Winds

EDDM

Details ICAO EDDM (MUC)
Name Muenchen Franz-Josef Strauss
Region Germany - Civil
Timezone Europe/Berlin (UTC+2.0)
Stats Elevation 1,487 ft / 453 m (AMSL)
Location 48.353786° 11.786117°
Runways 2
Magnetic Variation 3.216° E

METAR

Not found

TAF

TAF EDDM 272300Z 2800/2906 05003KT CAVOK BECMG 2807/2809 08008KT BECMG 2816/2818 VRB03KT

Decode

Departure Runways

ID Width Length Bearing (true) Bearing (mag) Surface Threshold Offset Overrun Length
08L 197 ft / 60 m 13,086 ft / 3,989 m 83.38° 80.16° Concrete 0 ft / 0 m 0 ft / 0 m
08R 197 ft / 60 m 13,086 ft / 3,989 m 83.37° 80.15° Concrete 0 ft / 0 m 0 ft / 0 m
26L 197 ft / 60 m 13,086 ft / 3,989 m 263.41° 260.19° Concrete 0 ft / 0 m 0 ft / 0 m
26R 197 ft / 60 m 13,086 ft / 3,989 m 263.42° 260.20° Concrete 0 ft / 0 m 0 ft / 0 m

DBBB

Details ICAO DBBB (COO)
Name CADJEHOUN
Region Benin
Timezone Africa/Porto-Novo (UTC+1.0)
Stats Elevation 19 ft / 6 m (AMSL)
Location 6.357227° 2.384353°
Runways 1
Magnetic Variation 2.475° W

METAR

Not found

TAF

TAF DBBB 272300Z 2800/2906 22010KT 9999 SCT012 PROB40 TEMPO 2803/2809 VRB02KT 4000 BR TEMPO 2813/2819 TS BKN012 FEW023CB

Decode

Destination Runways

ID Width Length Bearing (true) Bearing (mag) Surface Threshold Offset Overrun Length
06 148 ft / 45 m 7,887 ft / 2,404 m 52.94° 55.41° Asphalt 125 ft / 38 m 199 ft / 61 m
24 148 ft / 45 m 7,887 ft / 2,404 m 232.94° 235.41° Asphalt 0 ft / 0 m 416 ft / 127 m

Approach Navaids

Runway Type Ident Frequency Range Bearing (true) Bearing (mag) Slope Elevation
24 Localiser ICN 109.50 MHz 18 nm / 33 km 232.72° 235.20° - 19 ft / 6 m (AMSL)
24 Glidescope ICN 109.50 MHz 10 nm / 19 km 232.94° 235.42° 3.00° 19 ft / 6 m (AMSL)
24 DME ICN 109.50 MHz 18 nm / 33 km - - - 19 ft / 6 m (AMSL)